Terminal Aerodrome Forecast
Issued by NWS

Home | Current Version | Previous Version | Text Only | Print | Product List | Glossary On
Versions: 1 2 3 4 5 6 7 8 9 10 11 12 13
000
FTUS46 KSEW 261726
TAFPAE
TAF
KPAE 261726Z 2618/2718 27005KT P6SM OVC012
     FM262000 29006KT P6SM SCT025
     FM262100 29005KT P6SM SCT250
     FM270300 36004KT P6SM SCT250
     FM271100 01003KT P6SM SCT010 SCT250
      TEMPO 2712/2716 BKN010 BKN250=

USA.gov is the U.S. government's official web portal to all federal, state and local government web resources and services.